sensor_id;sensor_type;location;lat;lon;timestamp;pressure;altitude;pressure_sealevel;temperature;humidity
69784;BME280;57054;51.978;4.498;2023-06-04T00:00:09;102277.06;;;14.10;66.79
69784;BME280;57054;51.978;4.498;2023-06-04T00:02:35;102278.97;;;14.06;66.87
69784;BME280;57054;51.978;4.498;2023-06-04T00:05:00;102280.97;;;13.98;66.98
69784;BME280;57054;51.978;4.498;2023-06-04T00:07:26;102278.34;;;13.98;66.74
69784;BME280;57054;51.978;4.498;2023-06-04T00:09:52;102281.00;;;13.96;67.06
69784;BME280;57054;51.978;4.498;2023-06-04T00:12:18;102282.97;;;13.90;67.13
69784;BME280;57054;51.978;4.498;2023-06-04T00:14:44;102277.47;;;13.97;66.99
69784;BME280;57054;51.978;4.498;2023-06-04T00:17:10;102276.00;;;13.89;67.30
69784;BME280;57054;51.978;4.498;2023-06-04T00:19:38;102280.41;;;13.88;67.16
69784;BME280;57054;51.978;4.498;2023-06-04T00:22:04;102275.94;;;13.90;66.73
69784;BME280;57054;51.978;4.498;2023-06-04T00:24:31;102275.06;;;13.90;66.99
69784;BME280;57054;51.978;4.498;2023-06-04T00:26:57;102276.09;;;13.86;67.30
69784;BME280;57054;51.978;4.498;2023-06-04T00:29:22;102279.34;;;13.94;66.89
69784;BME280;57054;51.978;4.498;2023-06-04T00:31:48;102278.63;;;13.89;66.48
69784;BME280;57054;51.978;4.498;2023-06-04T00:34:13;102275.22;;;13.85;66.80
69784;BME280;57054;51.978;4.498;2023-06-04T00:36:39;102281.34;;;13.86;66.55
69784;BME280;57054;51.978;4.498;2023-06-04T00:39:05;102282.13;;;13.61;67.32
69784;BME280;57054;51.978;4.498;2023-06-04T00:41:31;102281.06;;;13.67;67.15
69784;BME280;57054;51.978;4.498;2023-06-04T00:43:56;102283.16;;;13.55;67.21
69784;BME280;57054;51.978;4.498;2023-06-04T00:46:25;102286.66;;;13.56;67.26
69784;BME280;57054;51.978;4.498;2023-06-04T00:48:52;102272.78;;;13.51;67.23
69784;BME280;57054;51.978;4.498;2023-06-04T00:51:18;102279.16;;;13.42;67.57
69784;BME280;57054;51.978;4.498;2023-06-04T00:53:45;102282.69;;;13.42;67.20
69784;BME280;57054;51.978;4.498;2023-06-04T00:56:12;102280.09;;;13.41;67.63
69784;BME280;57054;51.978;4.498;2023-06-04T00:58:38;102284.53;;;13.39;67.15
69784;BME280;57054;51.978;4.498;2023-06-04T01:07:08;102283.06;;;13.27;67.35
69784;BME280;57054;51.978;4.498;2023-06-04T01:09:35;102285.50;;;13.35;66.87
69784;BME280;57054;51.978;4.498;2023-06-04T01:12:04;102290.88;;;13.32;67.10
69784;BME280;57054;51.978;4.498;2023-06-04T01:14:30;102289.03;;;13.35;67.02
69784;BME280;57054;51.978;4.498;2023-06-04T01:17:25;102291.66;;;13.35;66.69
69784;BME280;57054;51.978;4.498;2023-06-04T01:20:34;102283.00;;;13.30;67.11
69784;BME280;57054;51.978;4.498;2023-06-04T01:26:08;102295.47;;;13.23;66.75
69784;BME280;57054;51.978;4.498;2023-06-04T01:28:36;102298.13;;;13.22;67.00
69784;BME280;57054;51.978;4.498;2023-06-04T01:31:03;102290.50;;;13.13;66.71
69784;BME280;57054;51.978;4.498;2023-06-04T01:33:29;102292.31;;;13.11;67.15
69784;BME280;57054;51.978;4.498;2023-06-04T01:35:54;102291.53;;;13.07;67.10
69784;BME280;57054;51.978;4.498;2023-06-04T01:38:20;102291.75;;;12.99;67.39
69784;BME280;57054;51.978;4.498;2023-06-04T01:40:46;102290.03;;;12.98;67.62
69784;BME280;57054;51.978;4.498;2023-06-04T01:43:12;102289.91;;;13.03;67.52
69784;BME280;57054;51.978;4.498;2023-06-04T01:45:37;102287.53;;;12.94;67.69
69784;BME280;57054;51.978;4.498;2023-06-04T01:48:04;102286.78;;;12.89;67.80
69784;BME280;57054;51.978;4.498;2023-06-04T01:50:30;102283.25;;;12.90;67.83
69784;BME280;57054;51.978;4.498;2023-06-04T01:52:56;102280.78;;;12.83;67.81
69784;BME280;57054;51.978;4.498;2023-06-04T01:55:21;102284.97;;;12.91;68.00
69784;BME280;57054;51.978;4.498;2023-06-04T01:57:47;102279.97;;;12.81;68.49
69784;BME280;57054;51.978;4.498;2023-06-04T02:00:13;102279.91;;;12.84;68.10
69784;BME280;57054;51.978;4.498;2023-06-04T02:02:41;102282.56;;;12.83;68.21
69784;BME280;57054;51.978;4.498;2023-06-04T02:05:07;102280.19;;;12.74;68.12
69784;BME280;57054;51.978;4.498;2023-06-04T02:07:36;102283.00;;;12.66;67.91
69784;BME280;57054;51.978;4.498;2023-06-04T02:10:08;102280.53;;;12.60;68.52
69784;BME280;57054;51.978;4.498;2023-06-04T02:12:36;102277.25;;;12.52;68.60
69784;BME280;57054;51.978;4.498;2023-06-04T02:15:02;102281.41;;;12.60;68.20
69784;BME280;57054;51.978;4.498;2023-06-04T02:17:29;102282.44;;;12.53;68.61
69784;BME280;57054;51.978;4.498;2023-06-04T02:19:57;102275.28;;;12.60;68.40
69784;BME280;57054;51.978;4.498;2023-06-04T02:22:24;102277.13;;;12.56;67.63
69784;BME280;57054;51.978;4.498;2023-06-04T02:24:50;102282.31;;;12.59;67.71
69784;BME280;57054;51.978;4.498;2023-06-04T02:27:16;102278.09;;;12.54;67.78
69784;BME280;57054;51.978;4.498;2023-06-04T02:29:41;102284.47;;;12.43;67.71
69784;BME280;57054;51.978;4.498;2023-06-04T02:32:08;102281.81;;;12.45;68.12
69784;BME280;57054;51.978;4.498;2023-06-04T02:34:33;102280.31;;;12.35;68.08
69784;BME280;57054;51.978;4.498;2023-06-04T02:37:02;102280.56;;;12.24;68.19
69784;BME280;57054;51.978;4.498;2023-06-04T02:39:28;102281.63;;;12.17;68.18
69784;BME280;57054;51.978;4.498;2023-06-04T02:41:53;102287.75;;;12.17;68.42
69784;BME280;57054;51.978;4.498;2023-06-04T02:44:19;102280.91;;;12.10;68.60
69784;BME280;57054;51.978;4.498;2023-06-04T02:46:44;102284.34;;;12.14;68.38
69784;BME280;57054;51.978;4.498;2023-06-04T02:49:10;102284.19;;;12.20;68.37
69784;BME280;57054;51.978;4.498;2023-06-04T02:51:42;102280.22;;;12.02;68.76
69784;BME280;57054;51.978;4.498;2023-06-04T02:54:07;102283.53;;;12.10;67.90
69784;BME280;57054;51.978;4.498;2023-06-04T02:56:34;102284.56;;;12.04;68.24
69784;BME280;57054;51.978;4.498;2023-06-04T02:59:00;102278.41;;;12.04;68.40
69784;BME280;57054;51.978;4.498;2023-06-04T03:01:26;102280.13;;;12.06;68.00
69784;BME280;57054;51.978;4.498;2023-06-04T03:03:52;102273.00;;;12.12;67.38
69784;BME280;57054;51.978;4.498;2023-06-04T03:06:19;102275.53;;;12.15;67.73
69784;BME280;57054;51.978;4.498;2023-06-04T03:08:46;102270.56;;;12.02;67.73
69784;BME280;57054;51.978;4.498;2023-06-04T03:11:12;102283.81;;;11.99;67.32
69784;BME280;57054;51.978;4.498;2023-06-04T03:13:38;102273.16;;;12.04;67.38
69784;BME280;57054;51.978;4.498;2023-06-04T03:16:03;102284.66;;;12.00;67.58
69784;BME280;57054;51.978;4.498;2023-06-04T03:18:37;102272.41;;;11.99;67.17
69784;BME280;57054;51.978;4.498;2023-06-04T03:21:06;102278.66;;;11.93;67.24
69784;BME280;57054;51.978;4.498;2023-06-04T03:23:33;102271.75;;;11.89;66.94
69784;BME280;57054;51.978;4.498;2023-06-04T03:26:02;102277.03;;;11.87;66.82
69784;BME280;57054;51.978;4.498;2023-06-04T03:28:28;102283.25;;;11.83;67.64
69784;BME280;57054;51.978;4.498;2023-06-04T03:30:53;102282.28;;;11.87;67.30
69784;BME280;57054;51.978;4.498;2023-06-04T03:33:18;102271.94;;;11.81;67.30
69784;BME280;57054;51.978;4.498;2023-06-04T03:35:44;102278.84;;;11.84;67.53
69784;BME280;57054;51.978;4.498;2023-06-04T03:38:10;102286.84;;;11.79;67.56
69784;BME280;57054;51.978;4.498;2023-06-04T03:40:36;102281.63;;;11.78;66.80
69784;BME280;57054;51.978;4.498;2023-06-04T11:03:06;102338.81;;;18.76;48.04
69784;BME280;57054;51.978;4.498;2023-06-04T11:05:45;102349.16;;;18.80;48.02
69784;BME280;57054;51.978;4.498;2023-06-04T11:08:12;102355.84;;;18.89;47.23
69784;BME280;57054;51.978;4.498;2023-06-04T11:10:44;102358.50;;;18.89;48.81
69784;BME280;57054;51.978;4.498;2023-06-04T11:13:10;102362.81;;;18.92;48.53
69784;BME280;57054;51.978;4.498;2023-06-04T11:15:43;102354.09;;;19.06;48.80
69784;BME280;57054;51.978;4.498;2023-06-04T11:18:19;102346.50;;;19.15;47.00
69784;BME280;57054;51.978;4.498;2023-06-04T11:20:47;102353.13;;;19.24;46.12
69784;BME280;57054;51.978;4.498;2023-06-04T11:23:14;102343.38;;;19.25;46.45
69784;BME280;57054;51.978;4.498;2023-06-04T11:25:40;102341.31;;;19.30;46.33
69784;BME280;57054;51.978;4.498;2023-06-04T11:28:08;102345.75;;;19.29;44.82
69784;BME280;57054;51.978;4.498;2023-06-04T11:30:38;102344.91;;;19.29;46.51
69784;BME280;57054;51.978;4.498;2023-06-04T11:33:04;102334.97;;;19.32;45.56
69784;BME280;57054;51.978;4.498;2023-06-04T11:35:31;102338.16;;;19.39;46.27
69784;BME280;57054;51.978;4.498;2023-06-04T11:37:58;102334.06;;;19.49;45.50
69784;BME280;57054;51.978;4.498;2023-06-04T11:40:24;102333.81;;;19.54;45.70
69784;BME280;57054;51.978;4.498;2023-06-04T11:42:52;102328.16;;;19.60;43.94
69784;BME280;57054;51.978;4.498;2023-06-04T11:45:18;102322.59;;;19.65;44.25
69784;BME280;57054;51.978;4.498;2023-06-04T11:47:48;102318.06;;;19.67;43.56
69784;BME280;57054;51.978;4.498;2023-06-04T11:50:14;102319.75;;;19.68;43.55
69784;BME280;57054;51.978;4.498;2023-06-04T11:52:40;102319.66;;;19.69;43.72
69784;BME280;57054;51.978;4.498;2023-06-04T11:55:12;102323.91;;;19.73;42.58
69784;BME280;57054;51.978;4.498;2023-06-04T11:57:39;102325.84;;;19.70;42.84
69784;BME280;57054;51.978;4.498;2023-06-04T12:00:06;102321.63;;;19.66;42.13
69784;BME280;57054;51.978;4.498;2023-06-04T12:02:39;102322.69;;;19.63;42.92
69784;BME280;57054;51.978;4.498;2023-06-04T12:05:16;102312.47;;;19.55;41.52
69784;BME280;57054;51.978;4.498;2023-06-04T12:07:44;102312.28;;;19.59;42.58
69784;BME280;57054;51.978;4.498;2023-06-04T12:10:10;102311.28;;;19.61;42.49
69784;BME280;57054;51.978;4.498;2023-06-04T12:12:37;102309.63;;;19.59;41.18
69784;BME280;57054;51.978;4.498;2023-06-04T12:15:03;102314.03;;;19.60;42.36
69784;BME280;57054;51.978;4.498;2023-06-04T12:17:31;102320.03;;;19.63;43.15
69784;BME280;57054;51.978;4.498;2023-06-04T12:19:57;102317.38;;;19.63;42.46
69784;BME280;57054;51.978;4.498;2023-06-04T12:22:24;102318.13;;;19.65;43.22
69784;BME280;57054;51.978;4.498;2023-06-04T12:24:51;102311.69;;;19.69;41.49
69784;BME280;57054;51.978;4.498;2023-06-04T12:27:25;102321.63;;;19.66;41.10
69784;BME280;57054;51.978;4.498;2023-06-04T12:30:01;102309.56;;;19.60;42.46
69784;BME280;57054;51.978;4.498;2023-06-04T12:32:27;102305.78;;;19.64;43.73
69784;BME280;57054;51.978;4.498;2023-06-04T12:34:53;102315.13;;;19.71;44.44
69784;BME280;57054;51.978;4.498;2023-06-04T12:37:18;102313.19;;;19.75;43.82
69784;BME280;57054;51.978;4.498;2023-06-04T12:39:44;102320.03;;;19.79;43.79
69784;BME280;57054;51.978;4.498;2023-06-04T12:42:09;102307.53;;;19.81;43.98
69784;BME280;57054;51.978;4.498;2023-06-04T12:44:38;102317.28;;;19.81;44.02
69784;BME280;57054;51.978;4.498;2023-06-04T12:47:04;102303.06;;;19.82;44.21
69784;BME280;57054;51.978;4.498;2023-06-04T12:49:30;102301.19;;;19.84;44.15
69784;BME280;57054;51.978;4.498;2023-06-04T12:51:55;102316.69;;;19.91;44.55
69784;BME280;57054;51.978;4.498;2023-06-04T12:54:21;102305.03;;;19.94;44.11
69784;BME280;57054;51.978;4.498;2023-06-04T12:56:46;102302.94;;;19.99;42.71
69784;BME280;57054;51.978;4.498;2023-06-04T12:59:12;102310.06;;;19.99;42.89
69784;BME280;57054;51.978;4.498;2023-06-04T13:01:37;102306.72;;;19.95;42.79
69784;BME280;57054;51.978;4.498;2023-06-04T13:04:03;102306.81;;;19.93;42.88
69784;BME280;57054;51.978;4.498;2023-06-04T13:06:29;102305.03;;;19.94;42.88
69784;BME280;57054;51.978;4.498;2023-06-04T13:08:54;102305.88;;;19.94;43.07
69784;BME280;57054;51.978;4.498;2023-06-04T13:11:20;102300.28;;;19.99;43.79
69784;BME280;57054;51.978;4.498;2023-06-04T13:13:47;102297.63;;;19.99;43.45
69784;BME280;57054;51.978;4.498;2023-06-04T13:16:12;102302.03;;;20.00;42.52
69784;BME280;57054;51.978;4.498;2023-06-04T13:18:38;102293.97;;;20.02;43.87
69784;BME280;57054;51.978;4.498;2023-06-04T13:21:03;102297.28;;;20.05;43.40
69784;BME280;57054;51.978;4.498;2023-06-04T13:23:28;102299.50;;;20.13;43.57
69784;BME280;57054;51.978;4.498;2023-06-04T13:25:54;102309.00;;;20.17;42.26
69784;BME280;57054;51.978;4.498;2023-06-04T13:28:19;102303.22;;;20.10;41.85
69784;BME280;57054;51.978;4.498;2023-06-04T13:30:45;102296.94;;;20.11;42.40
69784;BME280;57054;51.978;4.498;2023-06-04T13:33:11;102296.09;;;20.11;41.65
69784;BME280;57054;51.978;4.498;2023-06-04T13:35:36;102302.06;;;20.14;42.77
69784;BME280;57054;51.978;4.498;2023-06-04T13:38:04;102300.88;;;20.20;42.93
69784;BME280;57054;51.978;4.498;2023-06-04T13:40:29;102306.78;;;20.25;42.64
69784;BME280;57054;51.978;4.498;2023-06-04T13:42:55;102290.72;;;20.27;43.30
69784;BME280;57054;51.978;4.498;2023-06-04T13:45:20;102296.97;;;20.26;42.56
69784;BME280;57054;51.978;4.498;2023-06-04T13:47:49;102289.19;;;20.23;42.37
69784;BME280;57054;51.978;4.498;2023-06-04T13:50:15;102288.16;;;20.25;42.19
69784;BME280;57054;51.978;4.498;2023-06-04T13:52:40;102289.97;;;20.25;42.12
69784;BME280;57054;51.978;4.498;2023-06-04T13:55:06;102285.13;;;20.31;42.76
69784;BME280;57054;51.978;4.498;2023-06-04T13:57:32;102275.63;;;20.27;41.78
69784;BME280;57054;51.978;4.498;2023-06-04T13:59:57;102280.09;;;20.27;42.25
69784;BME280;57054;51.978;4.498;2023-06-04T14:02:23;102273.81;;;20.28;43.35
69784;BME280;57054;51.978;4.498;2023-06-04T14:04:50;102278.03;;;20.32;42.67
69784;BME280;57054;51.978;4.498;2023-06-04T14:07:16;102273.47;;;20.34;42.57
69784;BME280;57054;51.978;4.498;2023-06-04T14:09:42;102282.97;;;20.38;42.41
69784;BME280;57054;51.978;4.498;2023-06-04T14:12:08;102275.75;;;20.40;42.10
69784;BME280;57054;51.978;4.498;2023-06-04T14:14:33;102281.06;;;20.40;42.19
69784;BME280;57054;51.978;4.498;2023-06-04T14:17:05;102278.50;;;20.39;42.43
69784;BME280;57054;51.978;4.498;2023-06-04T14:19:34;102278.50;;;20.39;42.42
69784;BME280;57054;51.978;4.498;2023-06-04T14:22:01;102276.72;;;20.39;43.10
69784;BME280;57054;51.978;4.498;2023-06-04T14:24:27;102276.72;;;20.39;43.58
69784;BME280;57054;51.978;4.498;2023-06-04T14:26:52;102277.19;;;20.46;42.90
69784;BME280;57054;51.978;4.498;2023-06-04T14:29:17;102275.94;;;20.51;43.23
69784;BME280;57054;51.978;4.498;2023-06-04T14:31:43;102270.38;;;20.56;43.47
69784;BME280;57054;51.978;4.498;2023-06-04T14:34:10;102273.03;;;20.56;42.71
69784;BME280;57054;51.978;4.498;2023-06-04T14:36:35;102260.41;;;20.60;42.36
69784;BME280;57054;51.978;4.498;2023-06-04T14:39:01;102263.22;;;20.57;41.70
69784;BME280;57054;51.978;4.498;2023-06-04T14:41:26;102266.75;;;20.57;42.18
69784;BME280;57054;51.978;4.498;2023-06-04T14:43:55;102264.19;;;20.56;41.27
69784;BME280;57054;51.978;4.498;2023-06-04T14:46:21;102269.69;;;20.52;41.51
69784;BME280;57054;51.978;4.498;2023-06-04T14:48:46;102261.63;;;20.54;42.52
69784;BME280;57054;51.978;4.498;2023-06-04T14:51:12;102270.88;;;20.63;42.76
69784;BME280;57054;51.978;4.498;2023-06-04T14:53:37;102256.72;;;20.62;42.10
69784;BME280;57054;51.978;4.498;2023-06-04T14:56:07;102257.56;;;20.63;42.35
69784;BME280;57054;51.978;4.498;2023-06-04T14:58:32;102253.19;;;20.62;42.59
69784;BME280;57054;51.978;4.498;2023-06-04T15:01:01;102258.22;;;20.66;42.72
69784;BME280;57054;51.978;4.498;2023-06-04T15:03:29;102262.63;;;20.67;42.71
69784;BME280;57054;51.978;4.498;2023-06-04T15:05:55;102254.72;;;20.66;42.73
69784;BME280;57054;51.978;4.498;2023-06-04T15:08:20;102249.41;;;20.66;42.48
69784;BME280;57054;51.978;4.498;2023-06-04T15:10:46;102245.88;;;20.65;42.26
69784;BME280;57054;51.978;4.498;2023-06-04T15:13:11;102247.69;;;20.65;43.71
69784;BME280;57054;51.978;4.498;2023-06-04T15:15:37;102251.31;;;20.64;48.69
69784;BME280;57054;51.978;4.498;2023-06-04T15:18:02;102242.78;;;20.57;50.32
69784;BME280;57054;51.978;4.498;2023-06-04T15:20:28;102241.28;;;20.53;50.38
69784;BME280;57054;51.978;4.498;2023-06-04T15:22:54;102241.19;;;20.55;48.60
69784;BME280;57054;51.978;4.498;2023-06-04T15:25:19;102238.53;;;20.55;45.50
69784;BME280;57054;51.978;4.498;2023-06-04T15:27:45;102250.00;;;20.55;47.31
69784;BME280;57054;51.978;4.498;2023-06-04T15:30:10;102242.59;;;20.46;49.50
69784;BME280;57054;51.978;4.498;2023-06-04T15:32:36;102247.16;;;20.44;50.25
69784;BME280;57054;51.978;4.498;2023-06-04T15:35:02;102257.72;;;20.45;49.79
69784;BME280;57054;51.978;4.498;2023-06-04T15:37:28;102249.91;;;20.42;50.48
69784;BME280;57054;51.978;4.498;2023-06-04T15:39:53;102250.00;;;20.41;50.49
69784;BME280;57054;51.978;4.498;2023-06-04T15:42:20;102255.69;;;20.35;51.52
69784;BME280;57054;51.978;4.498;2023-06-04T15:44:45;102249.53;;;20.34;51.59
69784;BME280;57054;51.978;4.498;2023-06-04T15:47:11;102239.13;;;20.29;51.08
69784;BME280;57054;51.978;4.498;2023-06-04T15:49:36;102247.72;;;20.35;52.32
69784;BME280;57054;51.978;4.498;2023-06-04T15:52:01;102242.56;;;20.31;51.36
69784;BME280;57054;51.978;4.498;2023-06-04T15:54:27;102238.38;;;20.27;51.37
69784;BME280;57054;51.978;4.498;2023-06-04T15:56:52;102240.94;;;20.29;52.67
69784;BME280;57054;51.978;4.498;2023-06-04T15:59:18;102245.22;;;20.31;51.68
69784;BME280;57054;51.978;4.498;2023-06-04T16:01:43;102243.44;;;20.32;51.78
69784;BME280;57054;51.978;4.498;2023-06-04T16:04:10;102242.75;;;20.28;51.54
69784;BME280;57054;51.978;4.498;2023-06-04T16:06:36;102239.50;;;20.23;50.96
69784;BME280;57054;51.978;4.498;2023-06-04T16:09:02;102239.44;;;20.25;47.77
69784;BME280;57054;51.978;4.498;2023-06-04T16:11:28;102238.56;;;20.24;46.78
69784;BME280;57054;51.978;4.498;2023-06-04T16:13:53;102231.44;;;20.25;46.62
69784;BME280;57054;51.978;4.498;2023-06-04T16:16:19;102233.06;;;20.27;47.35
69784;BME280;57054;51.978;4.498;2023-06-04T16:18:47;102222.69;;;20.23;47.42
69784;BME280;57054;51.978;4.498;2023-06-04T16:21:12;102220.81;;;20.25;47.26
69784;BME280;57054;51.978;4.498;2023-06-04T16:23:38;102222.41;;;20.27;46.97
69784;BME280;57054;51.978;4.498;2023-06-04T16:26:03;102216.34;;;20.25;47.20
69784;BME280;57054;51.978;4.498;2023-06-04T16:28:29;102220.59;;;20.28;47.69
69784;BME280;57054;51.978;4.498;2023-06-04T16:30:54;102219.59;;;20.30;46.95
69784;BME280;57054;51.978;4.498;2023-06-04T16:33:20;102229.16;;;20.33;47.31
69784;BME280;57054;51.978;4.498;2023-06-04T16:35:45;102220.34;;;20.32;47.18
69784;BME280;57054;51.978;4.498;2023-06-04T16:38:10;102218.81;;;20.28;47.52
69784;BME280;57054;51.978;4.498;2023-06-04T16:40:36;102225.16;;;20.26;47.03
69784;BME280;57054;51.978;4.498;2023-06-04T16:43:01;102227.22;;;20.21;47.32
69784;BME280;57054;51.978;4.498;2023-06-04T16:45:27;102224.94;;;20.14;47.54
69784;BME280;57054;51.978;4.498;2023-06-04T16:47:53;102216.97;;;20.14;47.55
69784;BME280;57054;51.978;4.498;2023-06-04T16:50:18;102215.44;;;20.10;47.91
69784;BME280;57054;51.978;4.498;2023-06-04T16:52:44;102223.53;;;20.09;47.91
69784;BME280;57054;51.978;4.498;2023-06-04T16:55:10;102213.72;;;20.09;47.88
69784;BME280;57054;51.978;4.498;2023-06-04T16:57:36;102223.34;;;20.12;48.29
69784;BME280;57054;51.978;4.498;2023-06-04T17:00:02;102212.88;;;20.09;48.41
69784;BME280;57054;51.978;4.498;2023-06-04T17:02:28;102211.25;;;20.06;48.46
69784;BME280;57054;51.978;4.498;2023-06-04T17:04:54;102215.72;;;20.06;48.36
69784;BME280;57054;51.978;4.498;2023-06-04T17:07:20;102220.19;;;20.05;47.92
69784;BME280;57054;51.978;4.498;2023-06-04T17:09:45;102212.38;;;20.02;48.05
69784;BME280;57054;51.978;4.498;2023-06-04T17:12:10;102213.50;;;19.98;47.96
69784;BME280;57054;51.978;4.498;2023-06-04T17:14:36;102212.84;;;19.94;47.80
69784;BME280;57054;51.978;4.498;2023-06-04T17:17:01;102217.56;;;19.89;48.18
69784;BME280;57054;51.978;4.498;2023-06-04T17:19:27;102211.56;;;19.86;48.56
69784;BME280;57054;51.978;4.498;2023-06-04T17:21:53;102216.03;;;19.85;49.54
69784;BME280;57054;51.978;4.498;2023-06-04T17:24:18;102225.81;;;19.85;50.82
69784;BME280;57054;51.978;4.498;2023-06-04T17:26:44;102220.75;;;19.80;50.83
69784;BME280;57054;51.978;4.498;2023-06-04T17:29:09;102216.78;;;19.71;51.27
69784;BME280;57054;51.978;4.498;2023-06-04T17:31:35;102225.56;;;19.58;51.83
69784;BME280;57054;51.978;4.498;2023-06-04T17:34:00;102227.34;;;19.57;52.30
69784;BME280;57054;51.978;4.498;2023-06-04T17:36:26;102223.25;;;19.51;52.27
69784;BME280;57054;51.978;4.498;2023-06-04T17:38:52;102231.47;;;19.47;52.37
69784;BME280;57054;51.978;4.498;2023-06-04T17:41:17;102230.72;;;19.45;52.79
69784;BME280;57054;51.978;4.498;2023-06-04T17:43:43;102230.72;;;19.45;53.12
69784;BME280;57054;51.978;4.498;2023-06-04T17:46:08;102227.47;;;19.40;53.56
69784;BME280;57054;51.978;4.498;2023-06-04T17:48:34;102236.63;;;19.34;53.49
69784;BME280;57054;51.978;4.498;2023-06-04T17:51:00;102232.50;;;19.28;53.52
69784;BME280;57054;51.978;4.498;2023-06-04T17:53:26;102241.56;;;19.24;54.05
69784;BME280;57054;51.978;4.498;2023-06-04T17:55:52;102238.31;;;19.19;54.36
69784;BME280;57054;51.978;4.498;2023-06-04T17:58:19;102234.88;;;19.17;54.35
69784;BME280;57054;51.978;4.498;2023-06-04T18:00:45;102242.06;;;19.15;54.73
69784;BME280;57054;51.978;4.498;2023-06-04T18:03:10;102240.53;;;19.11;54.87
69784;BME280;57054;51.978;4.498;2023-06-04T18:05:39;102248.25;;;18.99;55.07
69784;BME280;57054;51.978;4.498;2023-06-04T18:08:04;102245.91;;;18.93;55.88
69784;BME280;57054;51.978;4.498;2023-06-04T18:10:30;102250.69;;;18.87;55.67
69784;BME280;57054;51.978;4.498;2023-06-04T18:12:56;102256.16;;;18.84;55.91
69784;BME280;57054;51.978;4.498;2023-06-04T18:15:21;102253.69;;;18.79;56.17
69784;BME280;57054;51.978;4.498;2023-06-04T18:17:47;102251.38;;;18.73;56.13
69784;BME280;57054;51.978;4.498;2023-06-04T18:20:12;102244.69;;;18.66;56.53
69784;BME280;57054;51.978;4.498;2023-06-04T18:22:38;102270.84;;;18.56;56.85
69784;BME280;57054;51.978;4.498;2023-06-04T18:25:04;102261.41;;;18.50;56.65
69784;BME280;57054;51.978;4.498;2023-06-04T18:27:36;102270.22;;;18.51;56.95
69784;BME280;57054;51.978;4.498;2023-06-04T18:30:03;102270.06;;;18.36;57.00
69784;BME280;57054;51.978;4.498;2023-06-04T18:32:28;102255.72;;;18.23;57.48
69784;BME280;57054;51.978;4.498;2023-06-04T18:34:54;102256.72;;;18.20;57.77
69784;BME280;57054;51.978;4.498;2023-06-04T18:37:20;102264.03;;;18.15;57.80
69784;BME280;57054;51.978;4.498;2023-06-04T18:39:45;102260.78;;;18.10;58.31
69784;BME280;57054;51.978;4.498;2023-06-04T18:42:11;102258.41;;;18.04;58.25
69784;BME280;57054;51.978;4.498;2023-06-04T18:44:37;102257.88;;;17.97;58.81
69784;BME280;57054;51.978;4.498;2023-06-04T18:47:03;102264.09;;;17.96;58.92
69784;BME280;57054;51.978;4.498;2023-06-04T18:49:30;102259.91;;;17.92;58.96
69784;BME280;57054;51.978;4.498;2023-06-04T18:51:56;102267.91;;;17.91;59.04
69784;BME280;57054;51.978;4.498;2023-06-04T18:54:21;102272.63;;;17.84;59.20
69784;BME280;57054;51.978;4.498;2023-06-04T18:56:47;102263.97;;;17.80;59.10
69784;BME280;57054;51.978;4.498;2023-06-04T18:59:13;102266.91;;;17.74;59.03
69784;BME280;57054;51.978;4.498;2023-06-04T19:01:39;102264.41;;;17.71;58.87
69784;BME280;57054;51.978;4.498;2023-06-04T19:04:04;102272.94;;;17.59;59.28
69784;BME280;57054;51.978;4.498;2023-06-04T19:06:32;102278.75;;;17.48;59.50
69784;BME280;57054;51.978;4.498;2023-06-04T19:08:57;102273.16;;;17.35;59.05
69784;BME280;57054;51.978;4.498;2023-06-04T19:11:23;102277.19;;;17.25;59.48
69784;BME280;57054;51.978;4.498;2023-06-04T19:13:49;102280.31;;;17.14;59.55
69784;BME280;57054;51.978;4.498;2023-06-04T19:16:14;102273.72;;;17.04;59.59
69784;BME280;57054;51.978;4.498;2023-06-04T19:18:40;102279.16;;;17.01;59.96
69784;BME280;57054;51.978;4.498;2023-06-04T19:21:05;102281.28;;;16.93;60.00
69784;BME280;57054;51.978;4.498;2023-06-04T19:23:35;102282.41;;;16.87;59.78
69784;BME280;57054;51.978;4.498;2023-06-04T19:26:01;102281.78;;;16.80;60.14
69784;BME280;57054;51.978;4.498;2023-06-04T19:28:27;102284.94;;;16.68;60.30
69784;BME280;57054;51.978;4.498;2023-06-04T19:30:52;102288.41;;;16.49;60.89
69784;BME280;57054;51.978;4.498;2023-06-04T19:33:18;102290.91;;;16.53;60.46
69784;BME280;57054;51.978;4.498;2023-06-04T19:35:45;102294.81;;;16.44;60.86
69784;BME280;57054;51.978;4.498;2023-06-04T19:38:11;102296.16;;;16.54;60.54
69784;BME280;57054;51.978;4.498;2023-06-04T19:40:36;102305.25;;;16.47;59.92
69784;BME280;57054;51.978;4.498;2023-06-04T19:43:02;102308.16;;;16.41;59.81
69784;BME280;57054;51.978;4.498;2023-06-04T19:45:27;102310.00;;;16.39;60.03
69784;BME280;57054;51.978;4.498;2023-06-04T19:47:53;102308.53;;;16.31;60.10
69784;BME280;57054;51.978;4.498;2023-06-04T19:50:18;102308.97;;;16.21;60.41
69784;BME280;57054;51.978;4.498;2023-06-04T19:52:45;102310.91;;;16.17;60.76
69784;BME280;57054;51.978;4.498;2023-06-04T19:55:10;102310.41;;;16.07;61.14
69784;BME280;57054;51.978;4.498;2023-06-04T19:57:37;102314.16;;;16.02;61.44
69784;BME280;57054;51.978;4.498;2023-06-04T20:00:03;102323.31;;;15.93;61.88
69784;BME280;57054;51.978;4.498;2023-06-04T20:02:29;102314.59;;;15.91;62.21
69784;BME280;57054;51.978;4.498;2023-06-04T20:04:55;102316.31;;;15.92;62.25
69784;BME280;57054;51.978;4.498;2023-06-04T20:07:21;102327.38;;;15.80;62.91
69784;BME280;57054;51.978;4.498;2023-06-04T20:09:47;102321.22;;;15.79;63.02
69784;BME280;57054;51.978;4.498;2023-06-04T20:12:12;102322.31;;;15.73;63.56
69784;BME280;57054;51.978;4.498;2023-06-04T20:14:38;102329.34;;;15.73;63.60